Time;durP1;ratioP1;P1;durP2;ratioP2;P2;SDS_P1;SDS_P2;PMS_P1;PMS_P2;Temp;Humidity;BMP_temperature;BMP_pressure;BME280_temperature;BME280_humidity;BME280_pressure;Samples;Min_cycle;Max_cycle;Signal;HPM_P1;HPM_P2
2023/09/04 00:00:22;;;;;;;0.80;0.57;;;;;;;;;;6215436;23;20016;-86
2023/09/04 00:02:49;;;;;;;0.50;0.50;;;;;;;;;;6243387;23;20023;-86
2023/09/04 00:05:17;;;;;;;0.50;0.47;;;;;;;;;;6191114;23;20016;-86
2023/09/04 00:07:43;;;;;;;0.55;0.45;;;;;;;;;;6216515;23;20025;-86
2023/09/04 00:10:09;;;;;;;0.82;0.82;;;;;;;;;;6242240;23;20323;-86
2023/09/04 00:12:35;;;;;;;0.50;0.50;;;;;;;;;;6243710;23;20325;-86
2023/09/04 00:15:01;;;;;;;1.17;0.63;;;;;;;;;;6242518;23;20307;-87
2023/09/04 00:17:27;;;;;;;1.00;0.40;;;;;;;;;;6191734;23;20337;-87
2023/09/04 00:19:53;;;;;;;0.77;0.60;;;;;;;;;;6215627;23;20413;-86
2023/09/04 00:22:19;;;;;;;0.60;0.60;;;;;;;;;;6215809;23;20473;-87
2023/09/04 00:24:45;;;;;;;0.52;0.52;;;;;;;;;;6215952;23;20441;-86
2023/09/04 00:27:11;;;;;;;0.50;0.40;;;;;;;;;;6190548;23;20351;-86
2023/09/04 00:29:37;;;;;;;0.50;0.50;;;;;;;;;;6216048;23;20012;-86
2023/09/04 00:32:03;;;;;;;2.20;0.80;;;;;;;;;;6214321;23;20091;-86
2023/09/04 00:34:30;;;;;;;0.65;0.50;;;;;;;;;;6214876;23;20019;-86
2023/09/04 00:36:56;;;;;;;0.80;0.60;;;;;;;;;;6213414;23;20091;-85
2023/09/04 00:39:22;;;;;;;0.60;0.52;;;;;;;;;;6242834;23;20337;-86
2023/09/04 00:41:48;;;;;;;0.52;0.43;;;;;;;;;;6243027;23;20225;-85
2023/09/04 00:44:14;;;;;;;1.85;0.50;;;;;;;;;;6214680;23;20023;-85
2023/09/04 00:46:42;;;;;;;0.40;0.40;;;;;;;;;;6242890;23;20015;-86
2023/09/04 00:49:09;;;;;;;0.50;0.45;;;;;;;;;;6190383;23;20078;-86
2023/09/04 00:51:35;;;;;;;0.60;0.50;;;;;;;;;;6242794;23;20026;-84
2023/09/04 00:54:01;;;;;;;0.63;0.57;;;;;;;;;;6215490;23;20016;-86
2023/09/04 00:56:27;;;;;;;0.82;0.60;;;;;;;;;;6242941;22;20012;-86
2023/09/04 00:58:54;;;;;;;0.40;0.40;;;;;;;;;;6215808;23;20463;-86
2023/09/04 01:01:20;;;;;;;0.70;0.40;;;;;;;;;;6243309;23;20043;-85
2023/09/04 01:03:46;;;;;;;0.50;0.47;;;;;;;;;;6218891;23;20344;-86
2023/09/04 01:06:12;;;;;;;1.33;0.50;;;;;;;;;;6218039;23;20011;-86
2023/09/04 01:08:38;;;;;;;0.32;0.32;;;;;;;;;;6246938;23;20017;-85
2023/09/04 01:11:23;;;;;;;0.38;0.38;;;;;;;;;;6218237;23;20008;-86
2023/09/04 01:13:54;;;;;;;0.52;0.47;;;;;;;;;;6217547;23;20070;-85
2023/09/04 01:16:21;;;;;;;0.80;0.60;;;;;;;;;;6242866;23;20043;-86
2023/09/04 01:18:47;;;;;;;0.45;0.38;;;;;;;;;;6215241;23;20050;-85
2023/09/04 01:21:13;;;;;;;0.60;0.60;;;;;;;;;;6188988;23;20016;-85
2023/09/04 01:23:39;;;;;;;0.40;0.38;;;;;;;;;;6242380;23;20012;-85
2023/09/04 01:26:16;;;;;;;0.50;0.45;;;;;;;;;;6214442;23;20012;-85
2023/09/04 01:28:48;;;;;;;0.40;0.40;;;;;;;;;;6214797;23;20406;-85
2023/09/04 01:31:18;;;;;;;0.60;0.60;;;;;;;;;;6213512;23;20015;-85
2023/09/04 01:33:47;;;;;;;0.57;0.40;;;;;;;;;;6241839;23;20458;-85
2023/09/04 01:36:16;;;;;;;0.77;0.52;;;;;;;;;;6240474;23;20016;-85
2023/09/04 01:38:43;;;;;;;1.23;1.15;;;;;;;;;;6241818;23;20012;-85
2023/09/04 01:41:09;;;;;;;0.60;0.50;;;;;;;;;;6241373;23;20333;-85
2023/09/04 01:43:35;;;;;;;0.40;0.40;;;;;;;;;;6214508;23;20342;-85
2023/09/04 01:46:01;;;;;;;0.88;0.80;;;;;;;;;;6241397;23;20008;-85
2023/09/04 01:48:27;;;;;;;1.15;0.70;;;;;;;;;;6241472;23;20334;-85
2023/09/04 01:50:54;;;;;;;0.65;0.60;;;;;;;;;;6214180;23;20012;-85
2023/09/04 01:53:20;;;;;;;0.68;0.60;;;;;;;;;;6189070;23;20012;-84
2023/09/04 01:55:46;;;;;;;1.13;1.00;;;;;;;;;;6241996;23;20104;-85
2023/09/04 01:58:12;;;;;;;0.77;0.63;;;;;;;;;;6213607;23;20318;-84
2023/09/04 02:00:38;;;;;;;0.98;0.70;;;;;;;;;;6213798;23;20088;-84
2023/09/04 02:03:04;;;;;;;0.80;0.80;;;;;;;;;;6213944;23;20016;-85
2023/09/04 02:05:30;;;;;;;1.63;0.73;;;;;;;;;;6241305;23;20093;-84
2023/09/04 02:07:56;;;;;;;1.38;0.60;;;;;;;;;;6241256;23;20016;-85
2023/09/04 02:10:23;;;;;;;0.68;0.68;;;;;;;;;;6214953;23;20019;-85
2023/09/04 02:12:50;;;;;;;1.63;1.00;;;;;;;;;;6214743;23;20016;-85
2023/09/04 02:15:16;;;;;;;1.00;0.70;;;;;;;;;;6214032;23;20082;-85
2023/09/04 02:17:42;;;;;;;0.93;0.80;;;;;;;;;;6242130;23;20030;-84
2023/09/04 02:20:08;;;;;;;1.30;1.20;;;;;;;;;;6214056;23;20057;-85
2023/09/04 02:22:34;;;;;;;2.20;1.10;;;;;;;;;;6214533;23;20467;-84
2023/09/04 02:25:00;;;;;;;2.28;1.00;;;;;;;;;;6214280;23;20019;-84
2023/09/04 02:27:26;;;;;;;1.88;0.85;;;;;;;;;;6241270;23;20012;-84
2023/09/04 02:29:52;;;;;;;0.70;0.63;;;;;;;;;;6213341;23;20017;-85
2023/09/04 02:32:18;;;;;;;0.85;0.70;;;;;;;;;;6241143;23;20031;-84
2023/09/04 02:34:44;;;;;;;0.98;0.73;;;;;;;;;;6214502;23;20020;-84
2023/09/04 02:37:10;;;;;;;0.73;0.70;;;;;;;;;;6213767;23;20034;-84
2023/09/04 02:39:36;;;;;;;0.82;0.77;;;;;;;;;;6215183;23;20070;-85
2023/09/04 02:42:02;;;;;;;1.05;0.85;;;;;;;;;;6242380;23;20317;-84
2023/09/04 02:44:29;;;;;;;0.90;0.88;;;;;;;;;;6216489;23;20461;-84
2023/09/04 02:46:55;;;;;;;1.02;0.93;;;;;;;;;;6242305;23;20190;-84
2023/09/04 02:49:21;;;;;;;1.00;0.82;;;;;;;;;;6242630;23;20013;-84
2023/09/04 02:51:47;;;;;;;1.80;1.05;;;;;;;;;;6244111;23;20058;-83
2023/09/04 02:54:13;;;;;;;1.45;1.05;;;;;;;;;;6242498;23;20046;-84
2023/09/04 02:56:39;;;;;;;1.33;1.15;;;;;;;;;;6191472;23;20466;-85
2023/09/04 02:59:05;;;;;;;1.95;1.15;;;;;;;;;;6242814;23;20019;-85
2023/09/04 03:01:31;;;;;;;2.53;0.90;;;;;;;;;;6241749;23;20015;-84
2023/09/04 03:03:57;;;;;;;1.25;1.02;;;;;;;;;;6241525;23;20341;-84
2023/09/04 03:06:23;;;;;;;1.42;1.13;;;;;;;;;;6242822;23;20031;-84
2023/09/04 03:08:50;;;;;;;1.20;0.88;;;;;;;;;;6216468;23;20030;-83
2023/09/04 03:11:16;;;;;;;1.55;1.20;;;;;;;;;;6242937;23;20012;-84
2023/09/04 03:13:42;;;;;;;1.52;1.30;;;;;;;;;;6243558;23;20081;-83
2023/09/04 03:16:08;;;;;;;5.00;1.42;;;;;;;;;;6214490;23;20020;-84
2023/09/04 03:18:34;;;;;;;1.67;1.23;;;;;;;;;;6243404;23;20012;-84
2023/09/04 03:21:04;;;;;;;1.80;1.17;;;;;;;;;;6248344;23;20012;-84
2023/09/04 03:23:31;;;;;;;1.92;1.17;;;;;;;;;;6246316;23;20044;-83
2023/09/04 03:25:57;;;;;;;2.03;1.10;;;;;;;;;;6242969;23;20103;-84
2023/09/04 03:28:23;;;;;;;1.40;0.93;;;;;;;;;;6242990;23;20087;-84
2023/09/04 03:30:49;;;;;;;0.93;0.82;;;;;;;;;;6215645;23;20376;-84
2023/09/04 03:33:15;;;;;;;0.70;0.63;;;;;;;;;;6242567;23;20020;-84
2023/09/04 03:35:41;;;;;;;1.63;0.80;;;;;;;;;;6242552;23;20260;-83
2023/09/04 03:38:07;;;;;;;1.20;0.90;;;;;;;;;;6241808;23;20012;-84
2023/09/04 03:40:33;;;;;;;1.45;1.00;;;;;;;;;;6215423;23;20114;-83
2023/09/04 03:42:59;;;;;;;1.73;1.27;;;;;;;;;;6242160;23;20012;-84
2023/09/04 03:45:31;;;;;;;1.70;1.40;;;;;;;;;;6242372;23;20385;-84
2023/09/04 03:47:58;;;;;;;1.67;1.30;;;;;;;;;;6215036;23;20022;-84
2023/09/04 03:50:24;;;;;;;1.60;1.10;;;;;;;;;;6215546;23;20016;-83
2023/09/04 03:52:50;;;;;;;2.53;1.20;;;;;;;;;;6215689;23;20021;-84
2023/09/04 03:55:16;;;;;;;1.73;1.20;;;;;;;;;;6215013;23;20347;-84
2023/09/04 03:57:43;;;;;;;1.58;1.13;;;;;;;;;;6243134;23;20034;-84
2023/09/04 04:00:19;;;;;;;1.73;1.00;;;;;;;;;;6241461;23;20366;-83
2023/09/04 04:02:46;;;;;;;1.40;0.95;;;;;;;;;;6242918;23;20043;-83
2023/09/04 04:05:12;;;;;;;1.30;0.93;;;;;;;;;;6241707;23;20026;-84
2023/09/04 04:07:39;;;;;;;1.42;1.20;;;;;;;;;;6242513;23;20016;-84
2023/09/04 04:10:05;;;;;;;0.98;0.77;;;;;;;;;;6242169;23;20019;-83
2023/09/04 04:12:32;;;;;;;1.45;0.95;;;;;;;;;;6242247;23;20016;-84
2023/09/04 04:14:58;;;;;;;1.33;1.00;;;;;;;;;;6241288;23;20023;-83
2023/09/04 04:17:25;;;;;;;1.10;0.82;;;;;;;;;;6242400;23;20099;-83
2023/09/04 04:19:53;;;;;;;2.10;1.27;;;;;;;;;;6215729;23;20069;-83
2023/09/04 04:22:20;;;;;;;0.88;0.70;;;;;;;;;;6241504;23;20015;-83
2023/09/04 04:24:46;;;;;;;1.45;1.00;;;;;;;;;;6242943;23;20337;-83
2023/09/04 04:27:12;;;;;;;1.30;1.20;;;;;;;;;;6214761;23;20020;-83
2023/09/04 04:29:39;;;;;;;1.20;1.10;;;;;;;;;;6215438;23;20016;-83
2023/09/04 04:32:06;;;;;;;1.30;1.02;;;;;;;;;;6214697;23;20346;-83
2023/09/04 04:34:32;;;;;;;1.65;0.90;;;;;;;;;;6214634;23;20027;-84
2023/09/04 04:36:59;;;;;;;1.15;1.02;;;;;;;;;;6241292;23;20047;-83
2023/09/04 04:39:25;;;;;;;1.05;0.82;;;;;;;;;;6241757;23;20023;-83
2023/09/04 04:41:52;;;;;;;1.30;0.98;;;;;;;;;;6214376;23;20016;-83
2023/09/04 04:44:18;;;;;;;1.10;0.82;;;;;;;;;;6240231;23;20020;-83
2023/09/04 04:46:44;;;;;;;1.00;0.90;;;;;;;;;;6215847;23;20012;-83
2023/09/04 04:49:10;;;;;;;1.98;1.02;;;;;;;;;;6241138;23;20015;-83
2023/09/04 04:51:36;;;;;;;0.77;0.75;;;;;;;;;;6241660;23;20121;-84
2023/09/04 04:54:02;;;;;;;1.25;0.95;;;;;;;;;;6214684;23;20015;-83
2023/09/04 04:56:28;;;;;;;1.70;1.02;;;;;;;;;;6189974;23;20028;-84
2023/09/04 04:58:54;;;;;;;1.10;1.00;;;;;;;;;;6240496;23;20012;-83
2023/09/04 05:01:20;;;;;;;1.15;1.02;;;;;;;;;;6214251;23;20054;-83
2023/09/04 05:03:46;;;;;;;1.77;0.85;;;;;;;;;;6242176;23;20328;-83
2023/09/04 05:06:12;;;;;;;0.82;0.70;;;;;;;;;;6213387;23;20027;-84
2023/09/04 05:08:38;;;;;;;1.67;0.70;;;;;;;;;;6241789;23;20020;-83
2023/09/04 05:11:05;;;;;;;1.33;0.90;;;;;;;;;;6240808;23;20070;-83
2023/09/04 05:13:32;;;;;;;1.27;1.17;;;;;;;;;;6241311;23;20066;-83
2023/09/04 05:16:05;;;;;;;2.17;1.13;;;;;;;;;;6241664;23;20319;-83
2023/09/04 05:18:34;;;;;;;1.75;1.15;;;;;;;;;;6241820;23;20050;-83
2023/09/04 05:21:00;;;;;;;2.65;1.20;;;;;;;;;;6214456;23;20023;-84
2023/09/04 05:23:26;;;;;;;1.17;1.08;;;;;;;;;;6241961;23;20091;-82
2023/09/04 05:25:53;;;;;;;1.65;1.55;;;;;;;;;;6241654;23;20046;-83
2023/09/04 05:28:19;;;;;;;2.05;1.70;;;;;;;;;;6214442;23;20016;-83
2023/09/04 05:30:45;;;;;;;2.33;1.85;;;;;;;;;;6242073;23;20008;-83
2023/09/04 05:33:12;;;;;;;2.03;1.77;;;;;;;;;;6240144;23;20012;-84
2023/09/04 05:35:38;;;;;;;2.67;2.20;;;;;;;;;;6240806;23;20093;-83
2023/09/04 05:38:04;;;;;;;2.60;1.70;;;;;;;;;;6240245;23;20016;-86
2023/09/04 05:40:30;;;;;;;2.72;2.03;;;;;;;;;;6242232;23;20372;-86
2023/09/04 05:42:59;;;;;;;2.58;1.98;;;;;;;;;;6213880;23;20350;-84
2023/09/04 05:45:25;;;;;;;3.03;2.10;;;;;;;;;;6214641;23;20015;-84
2023/09/04 05:47:51;;;;;;;3.15;2.10;;;;;;;;;;6214814;23;20018;-86
2023/09/04 05:50:17;;;;;;;3.10;2.38;;;;;;;;;;6214893;23;20394;-86
2023/09/04 05:52:43;;;;;;;4.97;2.83;;;;;;;;;;6244873;23;20024;-87
2023/09/04 05:55:09;;;;;;;3.92;2.80;;;;;;;;;;6244432;22;20405;-87
2023/09/04 05:57:36;;;;;;;4.55;3.10;;;;;;;;;;6245034;23;20098;-86
2023/09/04 06:00:06;;;;;;;4.50;3.58;;;;;;;;;;6245573;23;20087;-87
2023/09/04 06:02:32;;;;;;;5.18;3.25;;;;;;;;;;6218807;23;20016;-87
2023/09/04 06:04:58;;;;;;;4.13;3.15;;;;;;;;;;6242651;23;20012;-85
2023/09/04 06:07:24;;;;;;;4.45;3.08;;;;;;;;;;6241484;23;20051;-86
2023/09/04 06:09:50;;;;;;;4.30;3.25;;;;;;;;;;6240729;23;20016;-85
2023/09/04 06:12:16;;;;;;;4.25;3.00;;;;;;;;;;6240397;23;20020;-86
2023/09/04 06:14:42;;;;;;;5.05;3.40;;;;;;;;;;6242479;23;20023;-85
2023/09/04 06:17:08;;;;;;;5.63;3.92;;;;;;;;;;6242748;23;20016;-86
2023/09/04 06:19:34;;;;;;;4.18;2.90;;;;;;;;;;6243749;23;20083;-84
2023/09/04 06:22:00;;;;;;;5.28;3.47;;;;;;;;;;6243188;23;20334;-85
2023/09/04 06:24:26;;;;;;;6.15;3.90;;;;;;;;;;6243245;23;20042;-84
2023/09/04 06:26:52;;;;;;;3.92;3.00;;;;;;;;;;6242681;23;20016;-85
2023/09/04 06:29:19;;;;;;;3.85;3.13;;;;;;;;;;6241841;23;20008;-85
2023/09/04 06:31:45;;;;;;;4.25;3.30;;;;;;;;;;6243618;23;20012;-84
2023/09/04 06:34:11;;;;;;;5.20;3.35;;;;;;;;;;6243010;23;20142;-85
2023/09/04 06:36:37;;;;;;;4.00;3.08;;;;;;;;;;6217137;23;20016;-83
2023/09/04 06:39:03;;;;;;;6.95;3.55;;;;;;;;;;6240942;23;20369;-82
2023/09/04 06:41:30;;;;;;;5.68;3.42;;;;;;;;;;6241532;23;20016;-82
2023/09/04 06:43:56;;;;;;;4.90;3.25;;;;;;;;;;6214940;23;20016;-82
2023/09/04 06:46:22;;;;;;;4.47;3.50;;;;;;;;;;6215485;23;20047;-82
2023/09/04 06:48:48;;;;;;;4.13;3.28;;;;;;;;;;6214662;23;20343;-81
2023/09/04 06:51:15;;;;;;;4.93;3.30;;;;;;;;;;6241266;23;20012;-82
2023/09/04 06:53:41;;;;;;;5.18;3.28;;;;;;;;;;6216004;23;20262;-82
2023/09/04 06:56:07;;;;;;;4.97;3.47;;;;;;;;;;6239350;23;20348;-82
2023/09/04 06:58:33;;;;;;;6.03;3.90;;;;;;;;;;6241228;23;20103;-82
2023/09/04 07:01:02;;;;;;;4.45;3.75;;;;;;;;;;6239981;23;20016;-81
2023/09/04 07:03:29;;;;;;;4.45;3.47;;;;;;;;;;6241332;23;20023;-81
2023/09/04 07:05:55;;;;;;;4.90;3.95;;;;;;;;;;6215165;23;20069;-81
2023/09/04 07:08:21;;;;;;;4.28;3.55;;;;;;;;;;6241619;23;20020;-80
2023/09/04 07:10:50;;;;;;;5.60;4.47;;;;;;;;;;6241557;23;20023;-82
2023/09/04 07:13:16;;;;;;;5.57;3.47;;;;;;;;;;6240572;23;20461;-81
2023/09/04 07:15:43;;;;;;;4.80;4.13;;;;;;;;;;6243912;23;20086;-81
2023/09/04 07:18:09;;;;;;;5.07;3.45;;;;;;;;;;6240709;23;20039;-80
2023/09/04 07:20:35;;;;;;;5.25;3.97;;;;;;;;;;6242480;23;20011;-79
2023/09/04 07:23:01;;;;;;;7.55;4.30;;;;;;;;;;6241759;23;20087;-80
2023/09/04 07:25:27;;;;;;;28.17;5.53;;;;;;;;;;6242997;23;20042;-79
2023/09/04 07:27:53;;;;;;;7.03;3.88;;;;;;;;;;6241730;23;20027;-79
2023/09/04 07:30:22;;;;;;;6.05;3.92;;;;;;;;;;6237565;23;20012;-80
2023/09/04 07:32:48;;;;;;;5.32;3.90;;;;;;;;;;6215761;23;20023;-80
2023/09/04 07:35:14;;;;;;;4.20;3.55;;;;;;;;;;6215177;23;20099;-80
2023/09/04 07:37:40;;;;;;;4.93;3.75;;;;;;;;;;6242530;23;20008;-79
2023/09/04 07:40:08;;;;;;;27.52;4.32;;;;;;;;;;6215194;23;20493;-79
2023/09/04 07:42:34;;;;;;;4.15;3.72;;;;;;;;;;6242907;23;20015;-80
2023/09/04 07:45:00;;;;;;;4.15;3.38;;;;;;;;;;6240987;23;20016;-80
2023/09/04 07:47:26;;;;;;;3.78;3.10;;;;;;;;;;6241830;23;20019;-80
2023/09/04 07:49:53;;;;;;;4.03;3.10;;;;;;;;;;6242565;23;20044;-80
2023/09/04 07:52:21;;;;;;;3.88;3.20;;;;;;;;;;6214463;23;20031;-79
2023/09/04 07:54:48;;;;;;;3.35;3.00;;;;;;;;;;6242458;23;20024;-80
2023/09/04 07:57:14;;;;;;;3.05;2.75;;;;;;;;;;6241953;22;20373;-77
2023/09/04 07:59:43;;;;;;;4.05;3.38;;;;;;;;;;6242278;23;20056;-79
2023/09/04 08:02:09;;;;;;;4.03;3.15;;;;;;;;;;6240919;23;20023;-80
2023/09/04 08:04:35;;;;;;;3.25;2.95;;;;;;;;;;6241376;23;20044;-78
2023/09/04 08:07:01;;;;;;;4.35;2.90;;;;;;;;;;6241238;23;20437;-78
2023/09/04 08:09:27;;;;;;;4.32;2.75;;;;;;;;;;6241782;23;20028;-77
2023/09/04 08:11:53;;;;;;;2.97;2.42;;;;;;;;;;6241457;23;20016;-78
2023/09/04 08:14:19;;;;;;;3.35;2.83;;;;;;;;;;6241983;23;20012;-78
2023/09/04 08:16:45;;;;;;;4.10;2.85;;;;;;;;;;6242316;23;20016;-78
2023/09/04 08:19:11;;;;;;;4.07;2.88;;;;;;;;;;6211941;23;20359;-78
2023/09/04 08:21:37;;;;;;;3.45;3.15;;;;;;;;;;6212682;23;20019;-77
2023/09/04 08:24:03;;;;;;;3.80;3.40;;;;;;;;;;6241113;23;20376;-79
2023/09/04 08:26:29;;;;;;;5.30;3.15;;;;;;;;;;6241963;23;20070;-78
2023/09/04 08:28:55;;;;;;;3.55;2.97;;;;;;;;;;6241949;23;20012;-77
2023/09/04 08:31:21;;;;;;;3.75;2.67;;;;;;;;;;6242168;23;20045;-78
2023/09/04 08:33:47;;;;;;;3.72;3.33;;;;;;;;;;6242279;23;20066;-78
2023/09/04 08:36:13;;;;;;;4.47;3.10;;;;;;;;;;6213917;23;20505;-79
2023/09/04 08:38:40;;;;;;;4.25;3.00;;;;;;;;;;6214938;23;20086;-78
2023/09/04 08:41:08;;;;;;;3.78;3.30;;;;;;;;;;6213915;23;20020;-78
2023/09/04 08:43:35;;;;;;;3.22;2.92;;;;;;;;;;6213256;23;20023;-78
2023/09/04 08:46:03;;;;;;;5.50;2.75;;;;;;;;;;6240602;23;20064;-76
2023/09/04 08:48:32;;;;;;;3.40;2.65;;;;;;;;;;6236875;23;20019;-78
2023/09/04 08:50:59;;;;;;;3.05;2.72;;;;;;;;;;6240246;23;20044;-79
2023/09/04 08:53:25;;;;;;;2.90;2.42;;;;;;;;;;6240687;23;20012;-78
2023/09/04 08:55:51;;;;;;;2.83;2.47;;;;;;;;;;6241162;22;20020;-78
2023/09/04 08:58:18;;;;;;;4.18;2.42;;;;;;;;;;6240650;23;20053;-78
2023/09/04 09:00:46;;;;;;;3.53;2.92;;;;;;;;;;6213959;23;20040;-77
2023/09/04 09:03:13;;;;;;;2.95;2.50;;;;;;;;;;6240850;23;20016;-79
2023/09/04 09:05:39;;;;;;;2.53;2.22;;;;;;;;;;6214472;23;20016;-78
2023/09/04 09:08:06;;;;;;;3.40;2.60;;;;;;;;;;6241421;23;20030;-78
2023/09/04 09:10:32;;;;;;;3.63;2.40;;;;;;;;;;6241417;23;20012;-79
2023/09/04 09:12:58;;;;;;;3.30;2.20;;;;;;;;;;6240940;23;20020;-78
2023/09/04 09:15:25;;;;;;;2.20;1.92;;;;;;;;;;6214169;23;20077;-79
2023/09/04 09:17:55;;;;;;;2.47;2.10;;;;;;;;;;6213645;23;20078;-79
2023/09/04 09:20:21;;;;;;;;;;;;;;;;;;6240194;23;20008;-78
2023/09/04 09:22:51;;;;;;;2.97;2.08;;;;;;;;;;6241219;23;19999;-79
2023/09/04 09:25:18;;;;;;;1.80;1.70;;;;;;;;;;6240907;23;20016;-78
2023/09/04 09:27:44;;;;;;;4.18;2.05;;;;;;;;;;6240462;23;20020;-79
2023/09/04 09:30:10;;;;;;;2.25;1.90;;;;;;;;;;6212584;23;20012;-79
2023/09/04 09:32:36;;;;;;;3.03;1.73;;;;;;;;;;6241782;23;20047;-79
2023/09/04 09:35:03;;;;;;;2.05;1.80;;;;;;;;;;6214071;23;20016;-79
2023/09/04 09:37:32;;;;;;;2.53;1.92;;;;;;;;;;6213596;23;20250;-79
2023/09/04 09:39:58;;;;;;;3.03;2.00;;;;;;;;;;6213732;23;20039;-78
2023/09/04 09:42:29;;;;;;;2.65;2.00;;;;;;;;;;6240620;23;20307;-77
2023/09/04 09:44:55;;;;;;;2.58;2.03;;;;;;;;;;6240391;23;20012;-78
2023/09/04 09:47:21;;;;;;;5.35;2.22;;;;;;;;;;6188882;23;20016;-78
2023/09/04 09:49:47;;;;;;;3.03;2.25;;;;;;;;;;6213129;23;20024;-78
2023/09/04 09:52:14;;;;;;;1.45;1.35;;;;;;;;;;6212798;23;20024;-77
2023/09/04 09:54:41;;;;;;;2.75;1.77;;;;;;;;;;6189231;23;20437;-77
2023/09/04 09:57:08;;;;;;;1.55;1.30;;;;;;;;;;6240403;23;20027;-78
2023/09/04 09:59:43;;;;;;;2.53;1.85;;;;;;;;;;6214305;23;20023;-78
2023/09/04 10:02:09;;;;;;;3.72;1.65;;;;;;;;;;6244657;23;20180;-78
2023/09/04 10:04:35;;;;;;;2.50;1.83;;;;;;;;;;6243851;23;20019;-78
2023/09/04 10:07:04;;;;;;;1.95;1.77;;;;;;;;;;6219434;23;20020;-78
2023/09/04 10:09:43;;;;;;;3.40;1.92;;;;;;;;;;6241642;23;20373;-78
2023/09/04 10:12:15;;;;;;;2.78;1.70;;;;;;;;;;6239395;23;20020;-77
2023/09/04 10:14:42;;;;;;;1.70;1.45;;;;;;;;;;6238614;23;20016;-78
2023/09/04 10:17:14;;;;;;;3.15;1.67;;;;;;;;;;6212427;23;20017;-77
2023/09/04 10:19:41;;;;;;;2.75;1.48;;;;;;;;;;6214009;23;20027;-77
2023/09/04 10:22:20;;;;;;;3.50;1.65;;;;;;;;;;6213758;23;20016;-79
2023/09/04 10:24:49;;;;;;;2.17;1.50;;;;;;;;;;6240547;23;20012;-78
2023/09/04 10:27:17;;;;;;;3.45;1.88;;;;;;;;;;6239839;23;20020;-80
2023/09/04 10:29:51;;;;;;;2.65;1.73;;;;;;;;;;6214302;23;20012;-77
2023/09/04 10:32:17;;;;;;;2.28;1.50;;;;;;;;;;6239928;23;20020;-78
2023/09/04 10:34:43;;;;;;;2.15;1.60;;;;;;;;;;6214329;23;20016;-77
2023/09/04 10:37:10;;;;;;;1.83;1.48;;;;;;;;;;6237258;23;20020;-78
2023/09/04 10:39:37;;;;;;;2.38;1.85;;;;;;;;;;6241656;23;20024;-79
2023/09/04 10:42:04;;;;;;;2.30;1.52;;;;;;;;;;6240617;23;20090;-78
2023/09/04 10:44:44;;;;;;;2.17;2.00;;;;;;;;;;6242219;23;20016;-78
2023/09/04 10:47:10;;;;;;;1.77;1.63;;;;;;;;;;6212336;23;20012;-79
2023/09/04 10:49:36;;;;;;;1.80;1.70;;;;;;;;;;6215226;23;20016;-79
2023/09/04 10:52:02;;;;;;;3.55;1.58;;;;;;;;;;6188540;23;20031;-79
2023/09/04 10:54:28;;;;;;;2.08;1.75;;;;;;;;;;6213615;23;20042;-80
2023/09/04 10:56:54;;;;;;;1.88;1.58;;;;;;;;;;6239646;23;20016;-80
2023/09/04 10:59:21;;;;;;;1.55;1.42;;;;;;;;;;6240724;23;20442;-79
2023/09/04 11:01:48;;;;;;;2.88;1.90;;;;;;;;;;6212896;23;20047;-80
2023/09/04 11:04:26;;;;;;;1.63;1.52;;;;;;;;;;6240500;23;20027;-79
2023/09/04 11:07:12;;;;;;;1.88;1.25;;;;;;;;;;6189549;23;20051;-79
2023/09/04 11:09:38;;;;;;;1.70;1.33;;;;;;;;;;6242408;23;20016;-80
2023/09/04 11:12:10;;;;;;;1.58;1.48;;;;;;;;;;6215038;23;20414;-79
2023/09/04 11:14:44;;;;;;;1.70;1.60;;;;;;;;;;6242075;23;20021;-78
2023/09/04 11:17:10;;;;;;;2.33;1.70;;;;;;;;;;6241342;23;20012;-79
2023/09/04 11:19:36;;;;;;;1.45;1.35;;;;;;;;;;6216269;23;20008;-79
2023/09/04 11:22:02;;;;;;;2.92;1.60;;;;;;;;;;6215249;23;20012;-78
2023/09/04 11:24:30;;;;;;;1.50;1.38;;;;;;;;;;6242469;23;20059;-79
2023/09/04 11:26:56;;;;;;;1.95;1.50;;;;;;;;;;6214572;23;20043;-78
2023/09/04 11:29:22;;;;;;;2.60;1.50;;;;;;;;;;6241473;23;20142;-78
2023/09/04 11:31:48;;;;;;;2.03;1.60;;;;;;;;;;6243089;23;20012;-81
2023/09/04 11:34:21;;;;;;;3.42;1.67;;;;;;;;;;6242091;23;20090;-81
2023/09/04 11:36:47;;;;;;;2.10;1.90;;;;;;;;;;6216055;23;20012;-78
2023/09/04 11:39:14;;;;;;;1.83;1.45;;;;;;;;;;6242166;23;20044;-78
2023/09/04 11:41:40;;;;;;;2.03;1.75;;;;;;;;;;6242987;23;20008;-79
2023/09/04 11:44:06;;;;;;;1.90;1.75;;;;;;;;;;6213822;23;20021;-81
2023/09/04 11:46:33;;;;;;;2.88;1.60;;;;;;;;;;6215231;23;20016;-80
2023/09/04 11:48:59;;;;;;;2.05;1.85;;;;;;;;;;6241386;23;20516;-78
2023/09/04 11:51:25;;;;;;;1.60;1.50;;;;;;;;;;6241629;23;20019;-79
2023/09/04 11:53:53;;;;;;;2.83;1.42;;;;;;;;;;6214165;23;20020;-79
2023/09/04 11:56:19;;;;;;;1.95;1.73;;;;;;;;;;6239721;23;20337;-79
2023/09/04 11:58:45;;;;;;;1.52;1.42;;;;;;;;;;6213643;23;20030;-79
2023/09/04 12:01:11;;;;;;;3.15;1.65;;;;;;;;;;6241253;23;20016;-80
2023/09/04 12:03:37;;;;;;;1.90;1.65;;;;;;;;;;6241563;23;20016;-79
2023/09/04 12:06:03;;;;;;;2.45;1.55;;;;;;;;;;6213437;23;20067;-79
2023/09/04 12:08:29;;;;;;;1.88;1.60;;;;;;;;;;6241951;23;20016;-79
2023/09/04 12:10:56;;;;;;;1.52;1.42;;;;;;;;;;6241187;23;20430;-82
2023/09/04 12:13:23;;;;;;;2.85;1.67;;;;;;;;;;6241319;23;20092;-78
2023/09/04 12:15:49;;;;;;;1.40;1.30;;;;;;;;;;6242268;23;20092;-80
2023/09/04 12:18:15;;;;;;;2.35;1.42;;;;;;;;;;6241429;23;20453;-78
2023/09/04 12:20:42;;;;;;;2.08;1.63;;;;;;;;;;6242129;23;20020;-78
2023/09/04 12:23:09;;;;;;;2.00;1.63;;;;;;;;;;6241466;23;20319;-81
2023/09/04 12:25:36;;;;;;;1.60;1.50;;;;;;;;;;6241843;23;20083;-80
2023/09/04 12:28:03;;;;;;;2.45;1.83;;;;;;;;;;6213803;23;20114;-81
2023/09/04 12:30:29;;;;;;;1.60;1.50;;;;;;;;;;6241571;23;20022;-78
2023/09/04 12:32:58;;;;;;;1.48;1.23;;;;;;;;;;6241580;23;20090;-83
2023/09/04 12:35:24;;;;;;;2.20;1.58;;;;;;;;;;6241551;23;20016;-81
2023/09/04 12:37:53;;;;;;;1.67;1.40;;;;;;;;;;6241299;23;20026;-78
2023/09/04 12:40:21;;;;;;;1.45;1.20;;;;;;;;;;6241730;23;20362;-78
2023/09/04 12:42:47;;;;;;;1.45;1.15;;;;;;;;;;6214505;23;20031;-79
2023/09/04 12:45:13;;;;;;;1.85;1.40;;;;;;;;;;6214300;23;20012;-79
2023/09/04 12:47:41;;;;;;;2.75;1.45;;;;;;;;;;6242509;23;20079;-82
2023/09/04 12:50:07;;;;;;;1.30;1.20;;;;;;;;;;6214734;23;20023;-78
2023/09/04 12:52:34;;;;;;;2.15;1.40;;;;;;;;;;6241506;23;20016;-77
2023/09/04 12:55:00;;;;;;;1.60;1.42;;;;;;;;;;6240492;23;20358;-77
2023/09/04 12:57:27;;;;;;;1.40;1.30;;;;;;;;;;6240237;23;20059;-78
2023/09/04 12:59:53;;;;;;;1.40;1.20;;;;;;;;;;6241463;23;20058;-78
2023/09/04 13:02:21;;;;;;;1.67;1.48;;;;;;;;;;6241772;23;20087;-78
2023/09/04 13:04:47;;;;;;;1.60;1.35;;;;;;;;;;6242013;23;20012;-78
2023/09/04 13:07:13;;;;;;;1.35;1.25;;;;;;;;;;6240940;23;20043;-78
2023/09/04 13:09:39;;;;;;;1.40;1.30;;;;;;;;;;6241082;23;20034;-78
2023/09/04 13:12:05;;;;;;;1.70;1.35;;;;;;;;;;6241033;23;20099;-78
2023/09/04 13:14:31;;;;;;;1.17;1.08;;;;;;;;;;6214695;23;20066;-77
2023/09/04 13:16:57;;;;;;;1.15;1.05;;;;;;;;;;6241019;23;20660;-78
2023/09/04 13:19:23;;;;;;;1.85;1.40;;;;;;;;;;6214601;23;20016;-78
2023/09/04 13:21:49;;;;;;;1.17;0.95;;;;;;;;;;6241259;23;20013;-77
2023/09/04 13:24:15;;;;;;;1.70;1.30;;;;;;;;;;6240264;23;20126;-79
2023/09/04 13:26:43;;;;;;;2.17;1.40;;;;;;;;;;6240328;23;20372;-77
2023/09/04 13:29:09;;;;;;;1.52;1.20;;;;;;;;;;6241169;23;20020;-78
2023/09/04 13:31:35;;;;;;;1.40;1.20;;;;;;;;;;6240749;23;20008;-77
2023/09/04 13:34:01;;;;;;;1.42;1.02;;;;;;;;;;6213517;23;20110;-77
2023/09/04 13:36:27;;;;;;;2.17;1.15;;;;;;;;;;6240558;23;20008;-77
2023/09/04 13:38:53;;;;;;;1.10;0.90;;;;;;;;;;6238710;23;20407;-76
2023/09/04 13:41:19;;;;;;;1.42;1.20;;;;;;;;;;6239511;23;20091;-77
2023/09/04 13:43:45;;;;;;;1.73;0.95;;;;;;;;;;6241605;23;20012;-78
2023/09/04 13:46:12;;;;;;;0.80;0.80;;;;;;;;;;6239776;23;20023;-78
2023/09/04 13:48:38;;;;;;;1.45;1.02;;;;;;;;;;6213926;23;20012;-79
2023/09/04 13:51:05;;;;;;;0.98;0.80;;;;;;;;;;6240172;23;20013;-78
2023/09/04 13:53:31;;;;;;;0.68;0.60;;;;;;;;;;6240849;23;20087;-78
2023/09/04 13:55:58;;;;;;;0.75;0.75;;;;;;;;;;6239271;22;20094;-79
2023/09/04 13:58:24;;;;;;;2.80;1.02;;;;;;;;;;6241169;23;20020;-78
2023/09/04 14:00:50;;;;;;;1.20;1.08;;;;;;;;;;6241105;23;20094;-78
2023/09/04 14:03:16;;;;;;;1.05;0.70;;;;;;;;;;6212133;23;20016;-79
2023/09/04 14:05:42;;;;;;;1.85;0.93;;;;;;;;;;6240672;23;20019;-79
2023/09/04 14:08:09;;;;;;;1.20;1.10;;;;;;;;;;6240095;23;20012;-79
2023/09/04 14:10:36;;;;;;;1.17;0.77;;;;;;;;;;6214412;23;20012;-79
2023/09/04 14:13:02;;;;;;;1.15;0.98;;;;;;;;;;6213233;23;20020;-78
2023/09/04 14:15:28;;;;;;;1.10;0.77;;;;;;;;;;6240079;23;20098;-79
2023/09/04 14:17:54;;;;;;;0.90;0.70;;;;;;;;;;6212913;23;20019;-79
2023/09/04 14:20:20;;;;;;;1.17;0.90;;;;;;;;;;6214088;23;20024;-80
2023/09/04 14:22:46;;;;;;;1.52;0.80;;;;;;;;;;6240385;23;20369;-78
2023/09/04 14:25:12;;;;;;;1.05;0.82;;;;;;;;;;6239218;23;20013;-78
2023/09/04 14:27:38;;;;;;;1.67;0.90;;;;;;;;;;6240703;23;20298;-78
2023/09/04 14:30:04;;;;;;;1.88;1.02;;;;;;;;;;6240584;23;20023;-78
2023/09/04 14:32:31;;;;;;;1.67;0.80;;;;;;;;;;6240499;23;20260;-78
2023/09/04 14:34:57;;;;;;;2.58;0.90;;;;;;;;;;6239624;23;20059;-78
2023/09/04 14:37:23;;;;;;;0.80;0.70;;;;;;;;;;6213956;23;20346;-77
2023/09/04 14:39:53;;;;;;;1.13;0.90;;;;;;;;;;6242313;23;20019;-78